createdAt,value
2023-05-25T00:02:04.794Z,99590.85
2023-05-25T00:04:37.213Z,99587.70
2023-05-25T00:07:05.844Z,99588.20
2023-05-25T00:09:35.207Z,99590.09
2023-05-25T00:12:03.685Z,99593.52
2023-05-25T00:14:32.026Z,99588.64
2023-05-25T00:17:04.156Z,99584.91
2023-05-25T00:19:34.037Z,99582.77
2023-05-25T00:22:02.505Z,99584.48
2023-05-25T00:24:31.198Z,99587.80
2023-05-25T00:26:59.613Z,99591.52
2023-05-25T00:29:28.141Z,99595.73
2023-05-25T00:31:56.626Z,99596.38
2023-05-25T00:34:25.140Z,99598.09
2023-05-25T00:36:54.762Z,99601.14
2023-05-25T00:39:23.096Z,99602.46
2023-05-25T00:41:51.488Z,99601.05
2023-05-25T00:44:22.120Z,99602.52
2023-05-25T00:46:52.729Z,99605.64
2023-05-25T00:49:25.185Z,99607.48
2023-05-25T00:51:53.635Z,99611.94
2023-05-25T00:54:22.726Z,99616.21
2023-05-25T00:57:04.626Z,99617.65
2023-05-25T00:59:37.136Z,99617.21
2023-05-25T01:02:12.051Z,99614.73
2023-05-25T01:04:47.427Z,99612.42
2023-05-25T01:07:22.668Z,99614.85
2023-05-25T01:09:58.970Z,99613.43
2023-05-25T01:12:29.608Z,99615.92
2023-05-25T01:15:00.029Z,99615.36
2023-05-25T01:17:29.245Z,99618.16
2023-05-25T01:20:09.851Z,99613.98
2023-05-25T01:23:14.242Z,99612.73
2023-05-25T01:25:54.216Z,99608.19
2023-05-25T01:28:35.995Z,99608.39
2023-05-25T01:31:04.746Z,99609.85
2023-05-25T01:33:35.983Z,99606.16
2023-05-25T01:36:05.100Z,99603.65
2023-05-25T01:38:34.783Z,99606.02
2023-05-25T01:41:04.789Z,99599.84
2023-05-25T01:43:33.090Z,99602.29
2023-05-25T01:46:28.834Z,99608.48
2023-05-25T01:49:16.810Z,99606.62
2023-05-25T01:51:55.867Z,99606.88
2023-05-25T01:54:34.371Z,99604.20
2023-05-25T01:57:12.899Z,99601.65
2023-05-25T01:59:44.208Z,99599.48
2023-05-25T02:02:18.961Z,99599.81
2023-05-25T02:04:47.666Z,99597.34
2023-05-25T02:07:17.336Z,99593.55
2023-05-25T02:09:45.999Z,99595.20
2023-05-25T02:12:14.352Z,99596.05
2023-05-25T02:14:42.952Z,99595.02
2023-05-25T02:17:12.942Z,99594.66
2023-05-25T02:19:41.312Z,99597.16
2023-05-25T02:22:09.689Z,99597.33
2023-05-25T02:24:38.230Z,99599.73
2023-05-25T02:27:07.008Z,99601.44
2023-05-25T02:29:35.851Z,99603.20
2023-05-25T02:32:04.468Z,99603.66
2023-05-25T02:34:33.053Z,99604.48
2023-05-25T02:37:02.093Z,99602.48
2023-05-25T02:39:30.489Z,99602.66
2023-05-25T02:41:59.584Z,99605.65
2023-05-25T02:44:28.100Z,99603.44
2023-05-25T02:46:56.421Z,99600.50
2023-05-25T02:49:25.039Z,99597.91
2023-05-25T02:51:54.459Z,99595.71
2023-05-25T02:54:22.874Z,99598.14
2023-05-25T02:56:51.317Z,99596.70
2023-05-25T02:59:19.844Z,99597.02
2023-05-25T03:01:48.316Z,99596.23
2023-05-25T03:04:18.242Z,99595.48
2023-05-25T03:06:46.629Z,99595.41
2023-05-25T03:09:18.557Z,99596.46
2023-05-25T03:11:48.677Z,99597.84
2023-05-25T03:14:18.560Z,99594.98
2023-05-25T03:16:54.130Z,99597.23
2023-05-25T03:19:23.339Z,99595.69
2023-05-25T03:21:51.974Z,99596.98
2023-05-25T03:24:20.733Z,99600.19
2023-05-25T03:26:49.697Z,99601.45
2023-05-25T03:29:18.729Z,99600.71
2023-05-25T03:31:47.793Z,99600.38
2023-05-25T03:34:16.657Z,99602.54
2023-05-25T03:36:47.727Z,99606.45
2023-05-25T03:39:17.043Z,99609.84
2023-05-25T03:41:45.512Z,99609.48
2023-05-25T03:44:14.982Z,99611.56
2023-05-25T03:46:43.829Z,99612.66
2023-05-25T03:49:14.436Z,99614.52
2023-05-25T03:51:43.369Z,99618.02
2023-05-25T03:54:12.101Z,99621.09
2023-05-25T03:56:40.530Z,99621.19
2023-05-25T03:59:08.983Z,99620.90
2023-05-25T04:01:39.081Z,99622.31
2023-05-25T04:04:07.920Z,99624.77
2023-05-25T04:06:38.337Z,99626.75
2023-05-25T04:09:08.101Z,99627.05
2023-05-25T04:11:36.424Z,99630.23
2023-05-25T04:14:04.788Z,99632.94
2023-05-25T04:16:36.493Z,99639.36
2023-05-25T04:19:06.332Z,99640.73
2023-05-25T04:21:34.899Z,99638.13
2023-05-25T04:24:03.760Z,99639.55
2023-05-25T04:26:32.355Z,99639.42
2023-05-25T04:29:02.559Z,99640.91
2023-05-25T04:31:51.668Z,99642.45
2023-05-25T04:34:49.146Z,99649.48
2023-05-25T04:37:27.255Z,99652.45
2023-05-25T04:39:57.758Z,99649.27
2023-05-25T04:42:27.096Z,99652.27
2023-05-25T04:44:56.692Z,99655.16
2023-05-25T04:47:26.185Z,99651.42
2023-05-25T04:49:56.128Z,99653.76
2023-05-25T04:52:24.610Z,99654.40
2023-05-25T04:54:54.854Z,99656.73
2023-05-25T04:57:23.395Z,99659.55
2023-05-25T04:59:53.237Z,99663.48
2023-05-25T05:02:21.781Z,99665.60
2023-05-25T05:04:54.036Z,99663.88
2023-05-25T05:07:22.749Z,99666.16
2023-05-25T05:09:51.528Z,99671.70
2023-05-25T05:12:20.087Z,99677.69
2023-05-25T05:14:52.411Z,99678.23
2023-05-25T05:17:21.626Z,99679.55
2023-05-25T05:19:52.794Z,99678.34
2023-05-25T05:22:21.854Z,99679.77
2023-05-25T05:24:50.246Z,99680.90
2023-05-25T05:27:29.388Z,99681.63
2023-05-25T05:30:06.429Z,99683.36
2023-05-25T05:32:37.901Z,99690.02
2023-05-25T05:35:07.876Z,99690.41
2023-05-25T05:37:44.115Z,99689.70
2023-05-25T05:40:13.008Z,99691.09
2023-05-25T05:42:43.418Z,99689.66
2023-05-25T05:45:12.318Z,99689.02
2023-05-25T05:47:40.797Z,99692.98
2023-05-25T05:50:10.160Z,99697.42
2023-05-25T05:52:41.805Z,99703.34
2023-05-25T05:55:11.958Z,99704.69
2023-05-25T05:57:41.985Z,99705.58
2023-05-25T06:00:11.282Z,99703.36
2023-05-25T06:02:51.633Z,99706.18
2023-05-25T06:05:23.554Z,99704.39
2023-05-25T06:07:54.010Z,99701.89
2023-05-25T06:10:22.917Z,99704.48
2023-05-25T06:12:52.168Z,99709.38
2023-05-25T06:15:20.764Z,99715.16
2023-05-25T06:17:49.981Z,99716.18
2023-05-25T06:20:18.893Z,99714.73
2023-05-25T06:22:47.692Z,99715.36
2023-05-25T06:25:16.966Z,99713.37
2023-05-25T06:27:46.638Z,99714.13
2023-05-25T06:30:15.369Z,99712.00
2023-05-25T06:32:44.128Z,99715.17
2023-05-25T06:35:20.040Z,99713.18
2023-05-25T06:37:53.160Z,99713.63
2023-05-25T06:40:22.077Z,99717.77
2023-05-25T06:42:50.657Z,99722.28
2023-05-25T06:45:37.664Z,99723.39
2023-05-25T06:48:06.723Z,99724.09
2023-05-25T06:50:35.209Z,99725.02
2023-05-25T06:53:04.485Z,99728.45
2023-05-25T06:55:33.018Z,99729.33
2023-05-25T06:58:01.943Z,99732.14
2023-05-25T07:00:30.578Z,99727.58
2023-05-25T07:03:00.219Z,99728.70
2023-05-25T07:05:29.276Z,99732.20
2023-05-25T07:07:57.787Z,99733.29
2023-05-25T07:10:26.382Z,99734.50
2023-05-25T07:12:59.910Z,99733.71
2023-05-25T07:15:28.436Z,99734.68
2023-05-25T07:17:57.462Z,99734.17
2023-05-25T07:20:27.236Z,99734.23
2023-05-25T07:22:55.891Z,99734.48
2023-05-25T07:25:24.328Z,99738.22
2023-05-25T07:27:55.453Z,99737.34
2023-05-25T07:30:24.119Z,99739.52
2023-05-25T07:32:52.902Z,99744.06
2023-05-25T07:35:21.342Z,99747.61
2023-05-25T07:38:00.566Z,99743.40
2023-05-25T07:40:30.808Z,99746.08
2023-05-25T07:42:59.505Z,99747.98
2023-05-25T07:45:28.040Z,99751.96
2023-05-25T07:47:58.999Z,99752.33
2023-05-25T07:50:27.691Z,99750.65
2023-05-25T07:52:58.620Z,99753.90
2023-05-25T07:55:29.392Z,99752.83
2023-05-25T07:57:57.736Z,99752.30
2023-05-25T08:00:26.156Z,99749.56
2023-05-25T08:02:56.918Z,99745.65
2023-05-25T08:05:31.861Z,99741.53
2023-05-25T08:08:00.511Z,99736.96
2023-05-25T08:10:32.281Z,99736.71
2023-05-25T08:13:00.877Z,99737.59
2023-05-25T08:15:29.204Z,99736.76
2023-05-25T08:17:57.747Z,99738.98
2023-05-25T08:20:26.473Z,99737.14
2023-05-25T08:22:55.026Z,99736.64
2023-05-25T08:25:23.372Z,99739.52
2023-05-25T08:27:51.796Z,99738.70
2023-05-25T08:30:20.154Z,99743.64
2023-05-25T08:32:48.540Z,99740.55
2023-05-25T08:35:17.526Z,99744.65
2023-05-25T08:37:46.809Z,99741.46
2023-05-25T08:40:16.736Z,99740.39
2023-05-25T08:42:46.612Z,99744.11
2023-05-25T08:45:30.440Z,99746.42
2023-05-25T08:48:04.561Z,99747.05
2023-05-25T08:50:34.501Z,99749.34
2023-05-25T08:53:05.203Z,99749.54
2023-05-25T08:55:37.631Z,99750.55
2023-05-25T08:58:14.561Z,99750.59
2023-05-25T09:00:54.914Z,99752.63
2023-05-25T09:03:24.619Z,99749.99
2023-05-25T09:05:55.185Z,99755.52
2023-05-25T09:08:26.435Z,99758.42
2023-05-25T09:10:57.028Z,99760.89
2023-05-25T09:13:26.383Z,99761.30
2023-05-25T09:15:56.358Z,99755.46
2023-05-25T09:18:24.983Z,99753.73
2023-05-25T09:20:55.505Z,99753.13
2023-05-25T09:23:24.309Z,99750.83
2023-05-25T09:25:54.154Z,99750.72
2023-05-25T09:28:26.745Z,99754.12
2023-05-25T09:31:00.708Z,99754.46
2023-05-25T09:33:29.074Z,99755.28
2023-05-25T09:35:57.549Z,99760.10
2023-05-25T09:38:26.242Z,99758.52
2023-05-25T09:40:54.776Z,99756.52
2023-05-25T09:43:36.434Z,99760.83
2023-05-25T09:46:10.159Z,99758.22
2023-05-25T09:48:38.750Z,99758.69
2023-05-25T09:51:08.971Z,99751.73
2023-05-25T09:53:37.828Z,99748.13
2023-05-25T09:56:06.517Z,99744.44
2023-05-25T09:58:35.385Z,99745.08
2023-05-25T10:01:04.807Z,99745.79
2023-05-25T10:03:33.240Z,99749.38
2023-05-25T10:06:03.248Z,99752.85
2023-05-25T10:08:32.248Z,99750.27
2023-05-25T10:11:01.348Z,99751.88
2023-05-25T10:13:32.585Z,99751.21
2023-05-25T10:16:02.546Z,99754.60
2023-05-25T10:18:34.213Z,99750.67
2023-05-25T10:21:05.464Z,99749.17
2023-05-25T10:23:44.298Z,99746.48
2023-05-25T10:26:17.202Z,99753.11
2023-05-25T10:28:48.015Z,99751.89
2023-05-25T10:31:26.853Z,99750.31
2023-05-25T10:33:56.383Z,99748.38
2023-05-25T10:36:26.624Z,99749.06
2023-05-25T10:39:01.126Z,99749.40
2023-05-25T10:41:45.565Z,99749.43
2023-05-25T10:44:15.476Z,99746.12
2023-05-25T10:46:44.371Z,99745.21
2023-05-25T10:49:49.052Z,99743.30
2023-05-25T10:52:22.660Z,99737.19
2023-05-25T10:55:04.889Z,99738.36
2023-05-25T10:57:37.259Z,99741.65
2023-05-25T11:00:21.254Z,99742.85
2023-05-25T11:02:58.159Z,99743.75
2023-05-25T11:05:50.667Z,99741.70
2023-05-25T11:08:23.641Z,99738.34
2023-05-25T11:11:02.626Z,99737.98
2023-05-25T11:13:41.366Z,99736.08
2023-05-25T11:16:35.673Z,99737.33
2023-05-25T11:19:21.364Z,99740.09
2023-05-25T11:22:25.371Z,99740.27
2023-05-25T11:25:05.094Z,99735.77
2023-05-25T11:27:51.080Z,99735.45
2023-05-25T11:30:37.240Z,99729.71
2023-05-25T11:33:27.134Z,99730.66
2023-05-25T11:35:59.232Z,99731.52
2023-05-25T11:38:35.478Z,99725.19
2023-05-25T11:41:19.145Z,99722.48
2023-05-25T11:43:59.682Z,99726.27
2023-05-25T11:46:38.819Z,99726.48
2023-05-25T11:49:07.670Z,99724.73
2023-05-25T11:51:38.013Z,99724.55
2023-05-25T11:54:06.876Z,99723.73
2023-05-25T11:56:36.420Z,99721.75
2023-05-25T11:59:08.254Z,99721.64
2023-05-25T12:01:36.711Z,99722.31
2023-05-25T12:04:09.858Z,99723.95
2023-05-25T12:06:38.339Z,99724.58
2023-05-25T12:09:13.119Z,99723.90
2023-05-25T12:11:45.819Z,99721.25
2023-05-25T12:14:14.767Z,99720.98
2023-05-25T12:16:43.693Z,99718.21
2023-05-25T12:19:12.933Z,99715.00
2023-05-25T12:21:42.040Z,99715.92
2023-05-25T12:24:14.443Z,99715.48
2023-05-25T12:27:02.004Z,99715.06
2023-05-25T12:29:30.450Z,99714.52
2023-05-25T12:32:06.933Z,99716.11
2023-05-25T12:34:35.496Z,99715.93
2023-05-25T12:37:03.965Z,99717.33
2023-05-25T12:39:39.095Z,99720.31
2023-05-25T12:42:15.282Z,99725.83
2023-05-25T12:44:46.763Z,99719.94
2023-05-25T12:47:20.980Z,99719.48
2023-05-25T12:49:53.753Z,99714.84
2023-05-25T12:52:33.840Z,99715.77
2023-05-25T12:55:21.026Z,99715.04
2023-05-25T12:57:55.736Z,99709.60
2023-05-25T13:00:26.659Z,99709.55
2023-05-25T13:02:55.066Z,99707.53
2023-05-25T13:05:24.928Z,99708.34
2023-05-25T13:07:55.013Z,99707.24
2023-05-25T13:10:24.452Z,99705.66
2023-05-25T13:12:54.112Z,99701.65
2023-05-25T13:15:22.670Z,99696.70
2023-05-25T13:17:52.711Z,99689.86
2023-05-25T13:20:23.305Z,99687.54
2023-05-25T13:22:53.464Z,99686.09
2023-05-25T13:25:22.678Z,99680.84
2023-05-25T13:27:52.790Z,99677.65
2023-05-25T13:30:22.190Z,99672.95
2023-05-25T13:32:52.505Z,99672.25
2023-05-25T13:35:37.909Z,99668.85
2023-05-25T13:38:06.738Z,99668.36
2023-05-25T13:40:35.132Z,99666.87
2023-05-25T13:43:03.424Z,99664.92
2023-05-25T13:45:31.846Z,99670.73
2023-05-25T13:48:00.422Z,99675.23
2023-05-25T13:50:28.931Z,99674.67
2023-05-25T13:52:57.193Z,99675.48
2023-05-25T13:55:25.697Z,99674.45
2023-05-25T13:57:55.105Z,99673.94
2023-05-25T14:00:23.629Z,99673.94
2023-05-25T14:02:52.010Z,99672.54
2023-05-25T14:05:20.514Z,99670.14
2023-05-25T14:07:49.246Z,99669.88
2023-05-25T14:10:18.082Z,99667.58
2023-05-25T14:12:46.543Z,99670.38
2023-05-25T14:15:14.946Z,99671.69
2023-05-25T14:17:43.289Z,99674.65
2023-05-25T14:20:16.059Z,99673.43
2023-05-25T14:22:44.542Z,99673.69
2023-05-25T14:25:12.868Z,99674.52
2023-05-25T14:27:41.097Z,99673.77
2023-05-25T14:30:10.954Z,99676.14
2023-05-25T14:32:39.317Z,99675.95
2023-05-25T14:35:08.052Z,99676.37
2023-05-25T14:37:36.440Z,99675.48
2023-05-25T14:40:05.181Z,99677.70
2023-05-25T14:42:33.525Z,99675.17
2023-05-25T14:45:01.986Z,99674.11
2023-05-25T14:47:30.611Z,99670.65
2023-05-25T14:49:58.827Z,99669.15
2023-05-25T14:52:27.442Z,99665.52
2023-05-25T14:54:55.830Z,99665.38
2023-05-25T14:57:24.103Z,99666.40
2023-05-25T14:59:52.477Z,99666.00
2023-05-25T15:02:20.768Z,99664.05
2023-05-25T15:04:49.170Z,99659.58
2023-05-25T15:07:17.583Z,99660.09
2023-05-25T15:09:45.916Z,99657.45
2023-05-25T15:12:14.950Z,99659.31
2023-05-25T15:14:43.449Z,99661.80
2023-05-25T15:17:11.759Z,99661.17
2023-05-25T15:19:40.494Z,99660.80
2023-05-25T15:22:09.027Z,99660.34
2023-05-25T15:24:37.588Z,99656.10
2023-05-25T15:27:06.604Z,99657.73
2023-05-25T15:29:34.997Z,99657.98
2023-05-25T15:32:03.549Z,99657.68
2023-05-25T15:34:32.051Z,99657.34
2023-05-25T15:37:00.607Z,99658.81
2023-05-25T15:39:28.844Z,99656.88
2023-05-25T15:41:57.160Z,99658.86
2023-05-25T15:44:25.477Z,99660.54
2023-05-25T15:46:54.014Z,99666.44
2023-05-25T15:49:22.414Z,99665.04
2023-05-25T15:51:53.308Z,99661.92
2023-05-25T15:54:21.680Z,99657.48
2023-05-25T15:56:49.949Z,99659.10
2023-05-25T15:59:18.613Z,99654.95
2023-05-25T16:01:46.972Z,99653.02
2023-05-25T16:04:15.454Z,99648.81
2023-05-25T16:06:44.010Z,99648.46
2023-05-25T16:09:12.446Z,99650.30
2023-05-25T16:11:40.697Z,99655.12
2023-05-25T16:14:09.190Z,99653.80
2023-05-25T16:16:37.653Z,99656.98
2023-05-25T16:19:06.157Z,99657.69
2023-05-25T16:21:37.812Z,99655.02
2023-05-25T16:24:07.317Z,99655.77
2023-05-25T16:26:35.842Z,99654.34
2023-05-25T16:29:04.242Z,99656.23
2023-05-25T16:31:32.695Z,99655.33
2023-05-25T16:34:03.055Z,99658.05
2023-05-25T16:36:31.662Z,99655.83
2023-05-25T16:39:00.174Z,99656.11
2023-05-25T16:41:28.801Z,99659.05
2023-05-25T16:43:57.242Z,99657.13
2023-05-25T16:46:25.958Z,99656.77
2023-05-25T16:48:54.513Z,99654.65
2023-05-25T16:51:23.461Z,99654.41
2023-05-25T16:53:53.708Z,99657.45
2023-05-25T16:56:24.791Z,99654.23
2023-05-25T16:58:53.199Z,99653.05
2023-05-25T17:01:22.127Z,99653.20
2023-05-25T17:03:50.924Z,99657.70
2023-05-25T17:06:19.502Z,99659.17
2023-05-25T17:08:47.730Z,99661.59
2023-05-25T17:11:16.168Z,99661.11
2023-05-25T17:13:44.551Z,99660.63
2023-05-25T17:16:13.260Z,99658.02
2023-05-25T17:18:41.896Z,99657.06
2023-05-25T17:21:10.532Z,99658.39
2023-05-25T17:23:39.056Z,99663.48
2023-05-25T17:26:07.414Z,99664.92
2023-05-25T17:28:36.326Z,99666.23
2023-05-25T17:31:05.099Z,99663.28
2023-05-25T17:33:33.488Z,99661.42
2023-05-25T17:36:01.753Z,99664.05
2023-05-25T17:38:30.222Z,99664.14
2023-05-25T17:41:00.834Z,99667.01
2023-05-25T17:43:32.173Z,99669.66
2023-05-25T17:46:00.860Z,99672.98
2023-05-25T17:48:29.460Z,99676.96
2023-05-25T17:50:57.787Z,99675.52
2023-05-25T17:53:26.932Z,99676.27
2023-05-25T17:56:03.033Z,99678.98
2023-05-25T17:58:31.678Z,99683.12
2023-05-25T18:01:00.282Z,99680.48
2023-05-25T18:03:29.115Z,99678.91
2023-05-25T18:05:57.886Z,99675.15
2023-05-25T18:08:26.314Z,99669.48
2023-05-25T18:10:57.050Z,99672.08
2023-05-25T18:13:32.756Z,99666.67
2023-05-25T18:16:05.218Z,99667.88
2023-05-25T18:18:42.456Z,99669.40
2023-05-25T18:21:27.025Z,99671.53
2023-05-25T18:24:01.627Z,99667.55
2023-05-25T18:26:32.919Z,99664.45
2023-05-25T18:29:08.492Z,99662.83
2023-05-25T18:31:37.158Z,99661.52
2023-05-25T18:34:07.975Z,99663.59
2023-05-25T18:36:36.874Z,99667.20
2023-05-25T18:39:11.478Z,99668.38
2023-05-25T18:41:48.412Z,99673.11
2023-05-25T18:44:30.176Z,99676.05
2023-05-25T18:47:02.798Z,99680.84
2023-05-25T18:49:34.472Z,99683.85
2023-05-25T18:52:03.926Z,99684.80
2023-05-25T18:54:33.325Z,99683.77
2023-05-25T18:57:03.683Z,99687.73
2023-05-25T18:59:36.147Z,99692.54
2023-05-25T19:02:04.689Z,99694.23
2023-05-25T19:04:33.577Z,99697.55
2023-05-25T19:07:02.189Z,99696.85
2023-05-25T19:09:30.721Z,99697.02
2023-05-25T19:11:59.165Z,99700.67
2023-05-25T19:14:27.800Z,99703.90
2023-05-25T19:16:57.188Z,99706.12
2023-05-25T19:19:25.691Z,99708.28
2023-05-25T19:21:57.240Z,99711.56
2023-05-25T19:24:25.889Z,99714.05
2023-05-25T19:26:56.979Z,99715.02
2023-05-25T19:29:26.031Z,99710.60
2023-05-25T19:31:54.591Z,99712.79
2023-05-25T19:34:23.120Z,99710.33
2023-05-25T19:36:59.674Z,99708.04
2023-05-25T19:39:32.439Z,99707.70
2023-05-25T19:42:02.016Z,99702.59
2023-05-25T19:44:31.932Z,99706.91
2023-05-25T19:47:00.862Z,99707.12
2023-05-25T19:49:29.371Z,99707.76
2023-05-25T19:51:57.829Z,99706.96
2023-05-25T19:54:26.346Z,99705.42
2023-05-25T19:56:54.745Z,99705.85
2023-05-25T19:59:27.871Z,99704.74
2023-05-25T20:01:57.051Z,99706.06
2023-05-25T20:04:25.550Z,99706.27
2023-05-25T20:06:54.403Z,99705.42
2023-05-25T20:09:31.453Z,99705.68
2023-05-25T20:12:04.022Z,99709.02
2023-05-25T20:14:34.150Z,99712.45
2023-05-25T20:17:03.017Z,99714.84
2023-05-25T20:19:31.390Z,99714.89
2023-05-25T20:22:01.848Z,99715.16
2023-05-25T20:24:30.241Z,99714.73
2023-05-25T20:27:02.530Z,99712.10
2023-05-25T20:29:31.143Z,99710.56
2023-05-25T20:32:01.460Z,99709.41
2023-05-25T20:34:30.872Z,99711.55
2023-05-25T20:37:02.770Z,99711.14
2023-05-25T20:39:31.226Z,99707.30
2023-05-25T20:42:01.918Z,99707.73
2023-05-25T20:44:32.127Z,99705.27
2023-05-25T20:47:00.705Z,99704.36
2023-05-25T20:49:29.551Z,99704.98
2023-05-25T20:51:57.951Z,99711.65
2023-05-25T20:54:26.483Z,99710.35
2023-05-25T20:56:54.895Z,99712.16
2023-05-25T20:59:23.611Z,99711.85
2023-05-25T21:01:51.994Z,99709.23
2023-05-25T21:04:22.840Z,99711.96
2023-05-25T21:06:54.155Z,99715.83
2023-05-25T21:09:22.820Z,99717.46
2023-05-25T21:11:51.289Z,99720.70
2023-05-25T21:14:19.683Z,99723.66
2023-05-25T21:16:49.916Z,99722.55
2023-05-25T21:19:18.561Z,99718.34
2023-05-25T21:21:46.917Z,99718.17
2023-05-25T21:24:15.563Z,99719.10
2023-05-25T21:26:43.864Z,99717.56
2023-05-25T21:29:12.203Z,99725.33
2023-05-25T21:31:40.673Z,99725.76
2023-05-25T21:34:09.101Z,99724.10
2023-05-25T21:36:37.474Z,99722.59
2023-05-25T21:39:05.810Z,99720.93
2023-05-25T21:41:34.087Z,99716.88
2023-05-25T21:44:02.347Z,99717.31
2023-05-25T21:46:30.729Z,99714.96
2023-05-25T21:48:59.051Z,99713.30
2023-05-25T21:51:30.144Z,99713.27
2023-05-25T21:54:02.107Z,99712.56
2023-05-25T21:56:30.409Z,99711.85
2023-05-25T21:58:58.816Z,99714.36
2023-05-25T22:01:27.293Z,99713.35
2023-05-25T22:03:55.868Z,99714.33
2023-05-25T22:06:24.315Z,99718.19
2023-05-25T22:08:52.699Z,99716.20
2023-05-25T22:11:22.284Z,99718.25
2023-05-25T22:13:51.152Z,99717.38
2023-05-25T22:16:20.224Z,99716.11
2023-05-25T22:18:48.659Z,99715.85
2023-05-25T22:21:17.191Z,99716.29
2023-05-25T22:23:46.021Z,99715.76
2023-05-25T22:26:14.753Z,99717.34
2023-05-25T22:28:43.120Z,99721.36
2023-05-25T22:31:12.897Z,99724.73
2023-05-25T22:33:41.463Z,99726.41
2023-05-25T22:36:09.826Z,99727.39
2023-05-25T22:38:38.136Z,99727.06
2023-05-25T22:41:06.370Z,99728.38
2023-05-25T22:43:34.728Z,99725.33
2023-05-25T22:46:03.175Z,99725.87
2023-05-25T22:48:31.808Z,99724.23
2023-05-25T22:51:00.626Z,99722.83
2023-05-25T22:53:28.954Z,99722.52
2023-05-25T22:55:57.802Z,99722.55
2023-05-25T22:58:26.133Z,99724.85
2023-05-25T23:00:55.176Z,99729.51
2023-05-25T23:03:23.519Z,99728.91
2023-05-25T23:05:52.318Z,99725.62
2023-05-25T23:08:20.618Z,99723.44
2023-05-25T23:10:48.958Z,99719.52
2023-05-25T23:13:19.295Z,99725.76
2023-05-25T23:15:48.430Z,99723.10
2023-05-25T23:18:16.738Z,99723.14
2023-05-25T23:20:45.395Z,99722.77
2023-05-25T23:23:13.682Z,99720.48
2023-05-25T23:25:42.051Z,99719.98
2023-05-25T23:28:10.406Z,99718.96
2023-05-25T23:30:39.161Z,99721.40
2023-05-25T23:33:08.710Z,99714.95
2023-05-25T23:35:37.184Z,99714.49
2023-05-25T23:38:05.675Z,99709.56
2023-05-25T23:40:33.945Z,99712.09
2023-05-25T23:43:02.447Z,99709.25
2023-05-25T23:45:30.842Z,99709.42
2023-05-25T23:47:59.441Z,99705.16
2023-05-25T23:50:27.948Z,99703.73
2023-05-25T23:52:56.187Z,99706.58
2023-05-25T23:55:24.393Z,99702.22
2023-05-25T23:57:52.714Z,99701.33
